Time,TemperatureF,DewpointF,PressureIn,WindDirection,WindDirectionDegrees,WindSpeedMPH,WindSpeedGustMPH,Humidity,HourlyPrecipIn,Conditions,Clouds,dailyrainin,SoftwareType,DateUTC
2013-06-15 00:02:00,69.0,58.0,30.03,SE,127,0.0,2.0,67,0.00,,,0.00,,2013-06-15 05:02:00,
2013-06-15 00:22:00,67.0,57.0,30.03,SE,127,2.0,4.0,70,0.00,,,0.00,,2013-06-15 05:22:00,
2013-06-15 00:34:00,67.0,57.0,30.03,SE,127,2.0,4.0,70,0.00,,,0.00,,2013-06-15 05:34:00,
2013-06-15 00:43:00,67.0,57.0,30.03,SE,127,2.0,4.0,70,0.00,,,0.00,,2013-06-15 05:43:00,
2013-06-15 00:52:00,67.0,57.0,30.03,SE,127,2.0,4.0,70,0.00,,,0.00,,2013-06-15 05:52:00,
2013-06-15 01:02:00,67.0,57.0,30.03,SE,127,2.0,4.0,70,0.00,,,0.00,,2013-06-15 06:02:00,
2013-06-15 01:24:00,67.0,56.0,30.04,SE,127,0.0,3.0,69,0.00,,,0.00,,2013-06-15 06:24:00,
2013-06-15 01:33:00,67.0,56.0,30.04,SE,127,0.0,3.0,69,0.00,,,0.00,,2013-06-15 06:33:00,
2013-06-15 01:43:00,67.0,56.0,30.04,SE,127,0.0,3.0,69,0.00,,,0.00,,2013-06-15 06:43:00,
2013-06-15 01:53:00,67.0,56.0,30.04,SE,127,0.0,3.0,69,0.00,,,0.00,,2013-06-15 06:53:00,
2013-06-15 02:01:00,67.0,56.0,30.04,SE,127,0.0,3.0,69,0.00,,,0.00,,2013-06-15 07:01:00,
2013-06-15 02:23:00,66.0,57.0,30.03,SE,127,1.0,3.0,72,0.00,,,0.00,,2013-06-15 07:23:00,
2013-06-15 02:33:00,66.0,57.0,30.03,SE,127,1.0,3.0,72,0.00,,,0.00,,2013-06-15 07:33:00,
2013-06-15 02:43:00,66.0,57.0,30.03,SE,127,1.0,3.0,72,0.00,,,0.00,,2013-06-15 07:43:00,
2013-06-15 02:53:00,66.0,57.0,30.03,SE,127,1.0,3.0,72,0.00,,,0.00,,2013-06-15 07:53:00,
2013-06-15 03:02:00,66.0,57.0,30.03,SE,127,1.0,3.0,72,0.00,,,0.00,,2013-06-15 08:02:00,
2013-06-15 04:22:00,63.0,56.0,30.05,SE,127,0.0,2.0,78,0.00,,,0.00,,2013-06-15 09:22:00,
2013-06-15 04:33:00,63.0,56.0,30.05,SE,127,0.0,2.0,78,0.00,,,0.00,,2013-06-15 09:33:00,
2013-06-15 04:43:00,63.0,56.0,30.05,SE,127,0.0,2.0,78,0.00,,,0.00,,2013-06-15 09:43:00,
2013-06-15 04:52:00,64.0,57.0,30.04,SE,127,1.0,3.0,77,0.00,,,0.00,,2013-06-15 09:52:00,
2013-06-15 05:02:00,64.0,57.0,30.04,SE,127,1.0,3.0,77,0.00,,,0.00,,2013-06-15 10:02:00,
2013-06-15 05:11:00,64.0,57.0,30.04,SE,127,1.0,3.0,77,0.00,,,0.00,,2013-06-15 10:11:00,
2013-06-15 05:23:00,64.0,57.0,30.04,SE,127,1.0,3.0,77,0.00,,,0.00,,2013-06-15 10:23:00,
2013-06-15 05:33:00,64.0,57.0,30.04,SE,127,1.0,3.0,77,0.00,,,0.00,,2013-06-15 10:33:00,
2013-06-15 05:53:00,64.0,57.0,30.10,SE,127,0.0,4.0,79,0.00,,,0.00,,2013-06-15 10:53:00,
2013-06-15 06:02:00,64.0,57.0,30.10,SE,127,0.0,4.0,79,0.00,,,0.00,,2013-06-15 11:02:00,
2013-06-15 06:11:00,64.0,57.0,30.10,SE,127,0.0,4.0,79,0.00,,,0.00,,2013-06-15 11:11:00,
2013-06-15 06:22:00,64.0,57.0,30.10,SE,127,0.0,4.0,79,0.00,,,0.00,,2013-06-15 11:22:00,
2013-06-15 06:33:00,64.0,57.0,30.10,SE,127,0.0,4.0,79,0.00,,,0.00,,2013-06-15 11:33:00,
2013-06-15 06:53:00,65.0,59.0,30.09,SE,127,1.0,2.0,80,0.00,,,0.00,,2013-06-15 11:53:00,
2013-06-15 07:01:00,65.0,59.0,30.09,SE,127,1.0,2.0,80,0.00,,,0.00,,2013-06-15 12:01:00,
2013-06-15 07:12:00,65.0,59.0,30.09,SE,127,1.0,2.0,80,0.00,,,0.00,,2013-06-15 12:12:00,
2013-06-15 07:22:00,66.0,59.0,30.08,SE,127,1.0,4.0,78,0.00,,,0.00,,2013-06-15 12:22:00,
2013-06-15 07:33:00,66.0,59.0,30.08,SE,127,1.0,4.0,78,0.00,,,0.00,,2013-06-15 12:33:00,
2013-06-15 07:43:00,66.0,59.0,30.08,SE,127,1.0,4.0,78,0.00,,,0.00,,2013-06-15 12:43:00,
2013-06-15 07:52:00,66.0,59.0,30.08,SE,127,1.0,4.0,78,0.00,,,0.00,,2013-06-15 12:52:00,
2013-06-15 08:02:00,66.0,59.0,30.08,SE,127,1.0,4.0,78,0.00,,,0.00,,2013-06-15 13:02:00,
2013-06-15 10:53:00,77.0,61.0,30.02,SSW,194,4.0,10.0,57,0.00,,,0.00,,2013-06-15 15:53:00,
2013-06-15 11:01:00,77.0,61.0,30.02,SSW,194,4.0,10.0,57,0.00,,,0.00,,2013-06-15 16:01:00,
2013-06-15 11:11:00,77.0,61.0,30.02,SSW,194,4.0,10.0,57,0.00,,,0.00,,2013-06-15 16:11:00,
2013-06-15 11:22:00,77.0,61.0,30.02,SSW,194,4.0,10.0,57,0.00,,,0.00,,2013-06-15 16:22:00,
2013-06-15 11:33:00,77.0,61.0,30.02,SSW,194,4.0,10.0,57,0.00,,,0.00,,2013-06-15 16:33:00,
2013-06-15 13:22:00,79.0,64.0,30.00,South,185,3.0,7.0,61,0.00,,,0.00,,2013-06-15 18:22:00,
2013-06-15 13:33:00,79.0,64.0,30.00,South,185,3.0,7.0,61,0.00,,,0.00,,2013-06-15 18:33:00,
2013-06-15 13:43:00,79.0,64.0,30.00,South,185,3.0,7.0,61,0.00,,,0.00,,2013-06-15 18:43:00,
2013-06-15 13:53:00,80.0,64.0,30.01,SW,224,3.0,12.0,59,0.00,,,0.00,,2013-06-15 18:53:00,
2013-06-15 14:01:00,80.0,64.0,30.01,SW,224,3.0,12.0,59,0.00,,,0.00,,2013-06-15 19:01:00,
2013-06-15 14:11:00,80.0,64.0,30.01,SW,224,3.0,12.0,59,0.00,,,0.00,,2013-06-15 19:11:00,
2013-06-15 14:22:00,80.0,64.0,30.01,SW,224,3.0,12.0,59,0.00,,,0.00,,2013-06-15 19:22:00,
2013-06-15 14:33:00,80.0,64.0,30.01,SW,224,3.0,12.0,59,0.00,,,0.00,,2013-06-15 19:33:00,
2013-06-15 14:53:00,81.0,65.0,30.03,West,266,1.0,6.0,59,0.00,,,0.00,,2013-06-15 19:53:00,
2013-06-15 15:02:00,81.0,65.0,30.03,West,266,1.0,6.0,59,0.00,,,0.00,,2013-06-15 20:02:00,
2013-06-15 15:11:00,81.0,65.0,30.03,West,266,1.0,6.0,59,0.00,,,0.00,,2013-06-15 20:11:00,
2013-06-15 15:22:00,80.0,65.0,30.05,WNW,288,2.0,7.0,60,0.00,,,0.00,,2013-06-15 20:22:00,
2013-06-15 15:33:00,80.0,65.0,30.05,WNW,288,2.0,7.0,60,0.00,,,0.00,,2013-06-15 20:33:00,
2013-06-15 15:43:00,80.0,65.0,30.05,WNW,288,2.0,7.0,60,0.00,,,0.00,,2013-06-15 20:43:00,
2013-06-15 15:53:00,80.0,65.0,30.05,WNW,288,2.0,7.0,60,0.00,,,0.00,,2013-06-15 20:53:00,
2013-06-15 16:01:00,80.0,65.0,30.05,WNW,288,2.0,7.0,60,0.00,,,0.00,,2013-06-15 21:01:00,
2013-06-15 16:22:00,79.0,68.0,30.00,WNW,289,0.0,2.0,68,0.02,,,0.02,,2013-06-15 21:22:00,
2013-06-15 16:34:00,79.0,68.0,30.00,WNW,289,0.0,2.0,68,0.02,,,0.02,,2013-06-15 21:34:00,
2013-06-15 16:42:00,79.0,68.0,30.00,WNW,289,0.0,2.0,68,0.02,,,0.02,,2013-06-15 21:42:00,
2013-06-15 16:53:00,81.0,66.0,29.99,WNW,289,0.0,1.0,61,0.00,,,0.02,,2013-06-15 21:53:00,
2013-06-15 17:01:00,81.0,66.0,29.99,WNW,289,0.0,1.0,61,0.00,,,0.02,,2013-06-15 22:01:00,
2013-06-15 17:11:00,81.0,66.0,29.99,WNW,289,0.0,1.0,61,0.00,,,0.02,,2013-06-15 22:11:00,
2013-06-15 17:22:00,83.0,67.0,29.96,SSE,161,1.0,5.0,58,0.00,,,0.02,,2013-06-15 22:22:00,
2013-06-15 17:32:00,83.0,67.0,29.96,SSE,161,1.0,5.0,58,0.00,,,0.02,,2013-06-15 22:32:00,
2013-06-15 17:43:00,83.0,67.0,29.96,SSE,161,1.0,5.0,58,0.00,,,0.02,,2013-06-15 22:43:00,
2013-06-15 17:53:00,83.0,67.0,29.96,SSE,161,1.0,5.0,58,0.00,,,0.02,,2013-06-15 22:53:00,
2013-06-15 18:02:00,83.0,67.0,29.96,SSE,161,1.0,5.0,58,0.00,,,0.02,,2013-06-15 23:02:00,
2013-06-15 18:22:00,84.0,67.0,29.93,South,180,3.0,10.0,57,0.00,,,0.02,,2013-06-15 23:22:00,
2013-06-15 18:33:00,84.0,67.0,29.93,South,180,3.0,10.0,57,0.00,,,0.02,,2013-06-15 23:33:00,
2013-06-15 18:43:00,84.0,67.0,29.93,South,180,3.0,10.0,57,0.00,,,0.02,,2013-06-15 23:43:00,
2013-06-15 18:53:00,82.0,65.0,29.93,SSW,209,1.0,7.0,56,0.00,,,0.02,,2013-06-15 23:53:00,
2013-06-15 19:01:00,82.0,65.0,29.93,SSW,209,1.0,7.0,56,0.00,,,0.02,,2013-06-16 00:01:00,
2013-06-15 19:11:00,82.0,65.0,29.93,SSW,209,1.0,7.0,56,0.00,,,0.02,,2013-06-16 00:11:00,
2013-06-15 19:22:00,82.0,65.0,29.93,SSW,209,1.0,7.0,56,0.00,,,0.02,,2013-06-16 00:22:00,
2013-06-15 19:33:00,82.0,65.0,29.93,SSW,209,1.0,7.0,56,0.00,,,0.02,,2013-06-16 00:33:00,
2013-06-15 20:22:00,80.0,65.0,29.92,South,181,2.0,5.0,61,0.00,,,0.02,,2013-06-16 01:22:00,
2013-06-15 20:33:00,80.0,65.0,29.92,South,181,2.0,5.0,61,0.00,,,0.02,,2013-06-16 01:33:00,
2013-06-15 20:43:00,80.0,65.0,29.92,South,181,2.0,5.0,61,0.00,,,0.02,,2013-06-16 01:43:00,
2013-06-15 20:53:00,80.0,65.0,29.92,South,181,2.0,5.0,61,0.00,,,0.02,,2013-06-16 01:53:00,
2013-06-15 21:01:00,80.0,65.0,29.92,South,181,2.0,5.0,61,0.00,,,0.02,,2013-06-16 02:01:00,
2013-06-15 23:53:00,68.0,65.0,30.06,NW,306,9.0,21.0,89,0.16,,,0.20,,2013-06-16 04:53:00,